AUA431 LOWW-LEVC
Flight info
| Callsign | AUA431 |
|---|---|
| Flight time | 2h 16m |
| Altitude | 36000 |
| Route | OSPEN DCT ABRUK DCT SETAL DCT DETSA DCT GEKBA DCT VAMTU DCT KOLON DCT GANGU DCT PADKO DCT DIVKO DCT NILDU DCT NENDA N975 BCN M985 SOPET |
| Aircraft | A320/M-SDE3FGHIRWY/LB1 |
Departure
| Time | 2026-04-23 09:17 |
|---|---|
| Airport | Vienna International Airport (LOWW) |
Arrival
| Time | 2026-04-23 11:34 |
|---|---|
| Airport | Valencia Airport (LEVC) |
| Time | Latitude | Longitude | Altitude | Speed | Heading |
|---|---|---|---|---|---|
| 2026-04-23 08:48 | 48.11586 | 16.56629 | 617 ft | 0 kts | 206° |
| 2026-04-23 09:07 | 48.11585 | 16.56629 | 636 ft | 0 kts | 206° |
| 2026-04-23 09:07 | 48.11583 | 16.56627 | 636 ft | 0 kts | 206° |
| 2026-04-23 09:09 | 48.11579 | 16.56624 | 609 ft | 3 kts | 206° |
| 2026-04-23 09:09 | 48.11551 | 16.56604 | 615 ft | 4 kts | 206° |
| 2026-04-23 09:10 | 48.11517 | 16.56600 | 618 ft | 8 kts | 163° |
| 2026-04-23 09:10 | 48.11416 | 16.56642 | 623 ft | 8 kts | 117° |
| 2026-04-23 09:10 | 48.11391 | 16.56717 | 615 ft | 7 kts | 116° |
| 2026-04-23 09:11 | 48.11368 | 16.56787 | 618 ft | 8 kts | 116° |
| 2026-04-23 09:11 | 48.11347 | 16.56852 | 616 ft | 8 kts | 116° |
| 2026-04-23 09:11 | 48.11325 | 16.56920 | 616 ft | 6 kts | 116° |
| 2026-04-23 09:11 | 48.11323 | 16.56925 | 614 ft | 0 kts | 116° |
| 2026-04-23 09:13 | 48.11322 | 16.56928 | 613 ft | 1 kts | 116° |
| 2026-04-23 09:13 | 48.11314 | 16.56953 | 617 ft | 4 kts | 116° |
| 2026-04-23 09:14 | 48.11299 | 16.56999 | 616 ft | 7 kts | 116° |
| 2026-04-23 09:14 | 48.11265 | 16.57104 | 616 ft | 16 kts | 116° |
| 2026-04-23 09:14 | 48.11216 | 16.57253 | 613 ft | 15 kts | 116° |
| 2026-04-23 09:14 | 48.11173 | 16.57386 | 612 ft | 13 kts | 116° |
| 2026-04-23 09:15 | 48.11135 | 16.57503 | 620 ft | 12 kts | 116° |
| 2026-04-23 09:15 | 48.11101 | 16.57607 | 612 ft | 10 kts | 116° |
| 2026-04-23 09:15 | 48.11050 | 16.57647 | 623 ft | 8 kts | 191° |
| 2026-04-23 09:15 | 48.11001 | 16.57617 | 609 ft | 7 kts | 205° |
| 2026-04-23 09:16 | 48.10953 | 16.57581 | 611 ft | 10 kts | 208° |
| 2026-04-23 09:16 | 48.10920 | 16.57516 | 615 ft | 8 kts | 286° |
| 2026-04-23 09:16 | 48.10956 | 16.57406 | 618 ft | 28 kts | 296° |
| 2026-04-23 09:16 | 48.11147 | 16.56821 | 615 ft | 94 kts | 296° |
| 2026-04-23 09:17 | 48.11514 | 16.55696 | 611 ft | 145 kts | 296° |
| 2026-04-23 09:17 | 48.11967 | 16.54296 | 1082 ft | 153 kts | 297° |
| 2026-04-23 09:17 | 48.12080 | 16.52705 | 1783 ft | 165 kts | 259° |
| 2026-04-23 09:17 | 48.11358 | 16.51146 | 2160 ft | 202 kts | 232° |
| 2026-04-23 09:18 | 48.10240 | 16.49747 | 2807 ft | 214 kts | 225° |
| 2026-04-23 09:18 | 48.09038 | 16.48393 | 3593 ft | 218 kts | 224° |
| 2026-04-23 09:18 | 48.07818 | 16.47013 | 4324 ft | 222 kts | 224° |
| 2026-04-23 09:18 | 48.06561 | 16.45524 | 4826 ft | 242 kts | 226° |
| 2026-04-23 09:19 | 48.05211 | 16.43838 | 5207 ft | 265 kts | 226° |
| 2026-04-23 09:19 | 48.03770 | 16.41998 | 5865 ft | 278 kts | 226° |
| 2026-04-23 09:19 | 48.02283 | 16.40089 | 6655 ft | 286 kts | 226° |
| 2026-04-23 09:19 | 48.00761 | 16.38129 | 7436 ft | 292 kts | 226° |
| 2026-04-23 09:20 | 47.99233 | 16.36154 | 8212 ft | 297 kts | 225° |
| 2026-04-23 09:20 | 47.97659 | 16.34111 | 8997 ft | 303 kts | 225° |
| 2026-04-23 09:20 | 47.96065 | 16.32013 | 9790 ft | 307 kts | 229° |
| 2026-04-23 09:20 | 47.94614 | 16.29640 | 10409 ft | 316 kts | 233° |
| 2026-04-23 09:21 | 47.93107 | 16.27097 | 10692 ft | 339 kts | 232° |
| 2026-04-23 09:21 | 47.91507 | 16.24402 | 11118 ft | 353 kts | 232° |
| 2026-04-23 09:21 | 47.89861 | 16.21652 | 11800 ft | 359 kts | 232° |
| 2026-04-23 09:21 | 47.88184 | 16.18864 | 12509 ft | 364 kts | 232° |
| 2026-04-23 09:22 | 47.86483 | 16.16040 | 13205 ft | 369 kts | 232° |
| 2026-04-23 09:22 | 47.84758 | 16.13176 | 13920 ft | 374 kts | 231° |
| 2026-04-23 09:22 | 47.83011 | 16.10284 | 14541 ft | 378 kts | 231° |
| 2026-04-23 09:22 | 47.81243 | 16.07362 | 15154 ft | 382 kts | 231° |
| 2026-04-23 09:23 | 47.79459 | 16.04408 | 15797 ft | 386 kts | 231° |
| 2026-04-23 09:23 | 47.77660 | 16.01424 | 16427 ft | 389 kts | 230° |
| 2026-04-23 09:23 | 47.75841 | 15.98414 | 17041 ft | 393 kts | 230° |
| 2026-04-23 09:23 | 47.74002 | 15.95377 | 17620 ft | 397 kts | 230° |
| 2026-04-23 09:24 | 47.72144 | 15.92310 | 18224 ft | 401 kts | 230° |
| 2026-04-23 09:24 | 47.70268 | 15.89218 | 18764 ft | 405 kts | 230° |
| 2026-04-23 09:24 | 47.68374 | 15.86096 | 19291 ft | 408 kts | 230° |
| 2026-04-23 09:24 | 47.66465 | 15.82960 | 19863 ft | 411 kts | 229° |
| 2026-04-23 09:25 | 47.64538 | 15.79801 | 20389 ft | 414 kts | 229° |
| 2026-04-23 09:25 | 47.62602 | 15.76623 | 20935 ft | 417 kts | 229° |
| 2026-04-23 09:25 | 47.60649 | 15.73422 | 21478 ft | 420 kts | 229° |
| 2026-04-23 09:25 | 47.58680 | 15.70201 | 22042 ft | 423 kts | 229° |
| 2026-04-23 09:26 | 47.56697 | 15.66962 | 22576 ft | 426 kts | 229° |
| 2026-04-23 09:26 | 47.54700 | 15.63705 | 23112 ft | 429 kts | 229° |
| 2026-04-23 09:26 | 47.52687 | 15.60426 | 23623 ft | 432 kts | 229° |
| 2026-04-23 09:26 | 47.50690 | 15.57092 | 24051 ft | 435 kts | 231° |
| 2026-04-23 09:27 | 47.48990 | 15.53402 | 24441 ft | 435 kts | 245° |
| 2026-04-23 09:27 | 47.47824 | 15.49278 | 24785 ft | 435 kts | 256° |
| 2026-04-23 09:27 | 47.47044 | 15.44950 | 25149 ft | 437 kts | 258° |
| 2026-04-23 09:27 | 47.46252 | 15.40598 | 25525 ft | 441 kts | 257° |
| 2026-04-23 09:28 | 47.45406 | 15.36228 | 25891 ft | 444 kts | 257° |
| 2026-04-23 09:28 | 47.44541 | 15.31908 | 26246 ft | 447 kts | 256° |
| 2026-04-23 09:28 | 47.43629 | 15.27416 | 26611 ft | 450 kts | 256° |
| 2026-04-23 09:28 | 47.42742 | 15.23031 | 26938 ft | 453 kts | 256° |
| 2026-04-23 09:29 | 47.41845 | 15.18549 | 27277 ft | 456 kts | 256° |
| 2026-04-23 09:29 | 47.40951 | 15.14043 | 27592 ft | 459 kts | 257° |
| 2026-04-23 09:29 | 47.40056 | 15.09504 | 27908 ft | 462 kts | 257° |
| 2026-04-23 09:29 | 47.39155 | 15.04938 | 28246 ft | 464 kts | 257° |
| 2026-04-23 09:30 | 47.38250 | 15.00351 | 28579 ft | 467 kts | 257° |
| 2026-04-23 09:30 | 47.37336 | 14.95734 | 28885 ft | 470 kts | 257° |
| 2026-04-23 09:30 | 47.36412 | 14.91092 | 29212 ft | 473 kts | 256° |
| 2026-04-23 09:30 | 47.35478 | 14.86422 | 29526 ft | 476 kts | 256° |
| 2026-04-23 09:31 | 47.34535 | 14.81726 | 29805 ft | 479 kts | 256° |
| 2026-04-23 09:31 | 47.33587 | 14.77015 | 30105 ft | 481 kts | 256° |
| 2026-04-23 09:31 | 47.32629 | 14.72274 | 30360 ft | 484 kts | 256° |
| 2026-04-23 09:31 | 47.31667 | 14.67517 | 30577 ft | 486 kts | 256° |
| 2026-04-23 09:32 | 47.30700 | 14.62735 | 30832 ft | 488 kts | 256° |
| 2026-04-23 09:32 | 47.29728 | 14.57938 | 31085 ft | 489 kts | 256° |
| 2026-04-23 09:32 | 47.28753 | 14.53134 | 31324 ft | 491 kts | 256° |
| 2026-04-23 09:32 | 47.27772 | 14.48316 | 31544 ft | 492 kts | 256° |
| 2026-04-23 09:33 | 47.26788 | 14.43497 | 31874 ft | 491 kts | 256° |
| 2026-04-23 09:33 | 47.25804 | 14.38686 | 32198 ft | 490 kts | 256° |
| 2026-04-23 09:33 | 47.24818 | 14.33878 | 32524 ft | 490 kts | 255° |
| 2026-04-23 09:33 | 47.23832 | 14.29086 | 32832 ft | 490 kts | 255° |
| 2026-04-23 09:34 | 47.22844 | 14.24292 | 33154 ft | 489 kts | 255° |
| 2026-04-23 09:34 | 47.21855 | 14.19515 | 33484 ft | 488 kts | 255° |
| 2026-04-23 09:34 | 47.20863 | 14.14742 | 33808 ft | 487 kts | 255° |
| 2026-04-23 09:34 | 47.19871 | 14.09980 | 34121 ft | 487 kts | 255° |
| 2026-04-23 09:35 | 47.18882 | 14.05224 | 34406 ft | 486 kts | 255° |
| 2026-04-23 09:35 | 47.17894 | 14.00478 | 34685 ft | 485 kts | 255° |
| 2026-04-23 09:35 | 47.16917 | 13.95806 | 34974 ft | 484 kts | 255° |
| 2026-04-23 09:35 | 47.15922 | 13.91080 | 35236 ft | 483 kts | 254° |
| 2026-04-23 09:36 | 47.14924 | 13.86379 | 35485 ft | 482 kts | 254° |
| 2026-04-23 09:36 | 47.13924 | 13.81683 | 35718 ft | 481 kts | 254° |
| 2026-04-23 09:36 | 47.12926 | 13.76997 | 35945 ft | 481 kts | 254° |
| 2026-04-23 09:36 | 47.11932 | 13.72314 | 36179 ft | 480 kts | 254° |
| 2026-04-23 09:37 | 47.10942 | 13.67636 | 36281 ft | 479 kts | 254° |
| 2026-04-23 09:37 | 47.08976 | 13.58371 | 36295 ft | 474 kts | 254° |
| 2026-04-23 09:38 | 47.07012 | 13.49151 | 36291 ft | 473 kts | 253° |
| 2026-04-23 09:38 | 47.05030 | 13.39945 | 36292 ft | 473 kts | 253° |
| 2026-04-23 09:39 | 47.03037 | 13.30750 | 36289 ft | 473 kts | 253° |
| 2026-04-23 09:39 | 47.01032 | 13.21548 | 36293 ft | 474 kts | 253° |
| 2026-04-23 09:40 | 46.99025 | 13.12359 | 36286 ft | 474 kts | 253° |
| 2026-04-23 09:40 | 46.97019 | 13.03167 | 36284 ft | 474 kts | 253° |
| 2026-04-23 09:41 | 46.95007 | 12.93986 | 36283 ft | 474 kts | 253° |
| 2026-04-23 09:41 | 46.92979 | 12.84819 | 36284 ft | 474 kts | 253° |
| 2026-04-23 09:42 | 46.90937 | 12.75650 | 36286 ft | 474 kts | 253° |
| 2026-04-23 09:42 | 46.88887 | 12.66493 | 36280 ft | 474 kts | 252° |
| 2026-04-23 09:43 | 46.86844 | 12.57334 | 36292 ft | 474 kts | 253° |
| 2026-04-23 09:43 | 46.84797 | 12.48179 | 36296 ft | 474 kts | 252° |
| 2026-04-23 09:44 | 46.82732 | 12.39041 | 36299 ft | 474 kts | 252° |
| 2026-04-23 09:44 | 46.80539 | 12.29983 | 36300 ft | 474 kts | 245° |
| 2026-04-23 09:45 | 46.77044 | 12.21933 | 36296 ft | 473 kts | 231° |
| 2026-04-23 09:45 | 46.73053 | 12.14306 | 36297 ft | 473 kts | 232° |
| 2026-04-23 09:46 | 46.69072 | 12.06660 | 36294 ft | 474 kts | 231° |
| 2026-04-23 09:46 | 46.65085 | 11.99020 | 36291 ft | 474 kts | 231° |
| 2026-04-23 09:47 | 46.61088 | 11.91392 | 36283 ft | 474 kts | 231° |
| 2026-04-23 09:47 | 46.57080 | 11.83785 | 36279 ft | 474 kts | 231° |
| 2026-04-23 09:48 | 46.53072 | 11.76194 | 36277 ft | 473 kts | 231° |
| 2026-04-23 09:48 | 46.49062 | 11.68616 | 36279 ft | 473 kts | 231° |
| 2026-04-23 09:49 | 46.45051 | 11.61050 | 36280 ft | 473 kts | 231° |
| 2026-04-23 09:49 | 46.41041 | 11.53503 | 36295 ft | 473 kts | 230° |
| 2026-04-23 09:50 | 46.37057 | 11.46015 | 36298 ft | 472 kts | 230° |
| 2026-04-23 09:50 | 46.33045 | 11.38502 | 36296 ft | 471 kts | 230° |
| 2026-04-23 09:51 | 46.29031 | 11.31015 | 36275 ft | 471 kts | 230° |
| 2026-04-23 09:51 | 46.25008 | 11.23546 | 36281 ft | 471 kts | 230° |
| 2026-04-23 09:52 | 46.20990 | 11.16095 | 36281 ft | 470 kts | 230° |
| 2026-04-23 09:52 | 46.16978 | 11.08661 | 36276 ft | 469 kts | 230° |
| 2026-04-23 09:53 | 46.12955 | 11.01253 | 36275 ft | 468 kts | 230° |
| 2026-04-23 09:53 | 46.08942 | 10.93882 | 36271 ft | 467 kts | 230° |
| 2026-04-23 09:54 | 46.04935 | 10.86529 | 36269 ft | 466 kts | 230° |
| 2026-04-23 09:54 | 46.00933 | 10.79190 | 36264 ft | 466 kts | 230° |
| 2026-04-23 09:55 | 45.96934 | 10.71877 | 36265 ft | 465 kts | 229° |
| 2026-04-23 09:55 | 45.92937 | 10.64588 | 36261 ft | 464 kts | 229° |
| 2026-04-23 09:56 | 45.89612 | 10.58548 | 36260 ft | 464 kts | 229° |
| 2026-04-23 09:56 | 45.85609 | 10.51296 | 36255 ft | 463 kts | 229° |
| 2026-04-23 09:57 | 45.81602 | 10.44056 | 36255 ft | 463 kts | 229° |
| 2026-04-23 09:57 | 45.77596 | 10.36829 | 36262 ft | 463 kts | 229° |
| 2026-04-23 09:58 | 45.73588 | 10.29615 | 36264 ft | 462 kts | 229° |
| 2026-04-23 09:58 | 45.69582 | 10.22421 | 36268 ft | 462 kts | 229° |
| 2026-04-23 09:59 | 45.65569 | 10.15240 | 36265 ft | 462 kts | 229° |
| 2026-04-23 09:59 | 45.61551 | 10.08079 | 36270 ft | 462 kts | 229° |
| 2026-04-23 10:00 | 45.57535 | 10.00927 | 36273 ft | 461 kts | 229° |
| 2026-04-23 10:00 | 45.53518 | 9.93785 | 36288 ft | 461 kts | 229° |
| 2026-04-23 10:01 | 45.49499 | 9.86666 | 36296 ft | 461 kts | 229° |
| 2026-04-23 10:01 | 45.45480 | 9.79564 | 36296 ft | 460 kts | 229° |
| 2026-04-23 10:02 | 45.41456 | 9.72484 | 36219 ft | 460 kts | 229° |
| 2026-04-23 10:02 | 45.37457 | 9.65480 | 36206 ft | 459 kts | 230° |
| 2026-04-23 10:03 | 45.33439 | 9.58421 | 36229 ft | 459 kts | 229° |
| 2026-04-23 10:03 | 45.29420 | 9.51373 | 36300 ft | 459 kts | 230° |
| 2026-04-23 10:04 | 45.25396 | 9.44348 | 36299 ft | 459 kts | 230° |
| 2026-04-23 10:04 | 45.21368 | 9.37330 | 36304 ft | 458 kts | 230° |
| 2026-04-23 10:05 | 45.17339 | 9.30338 | 36305 ft | 458 kts | 230° |
| 2026-04-23 10:05 | 45.13312 | 9.23355 | 36305 ft | 457 kts | 230° |
| 2026-04-23 10:06 | 45.09281 | 9.16401 | 36303 ft | 457 kts | 230° |
| 2026-04-23 10:06 | 45.05278 | 9.09504 | 36306 ft | 456 kts | 231° |
| 2026-04-23 10:07 | 45.01250 | 9.02577 | 36307 ft | 456 kts | 231° |
| 2026-04-23 10:07 | 44.97220 | 8.95672 | 36310 ft | 455 kts | 231° |
| 2026-04-23 10:08 | 44.93193 | 8.88788 | 36308 ft | 454 kts | 231° |
| 2026-04-23 10:08 | 44.89171 | 8.81915 | 36308 ft | 454 kts | 231° |
| 2026-04-23 10:09 | 44.83138 | 8.71651 | 36299 ft | 453 kts | 232° |
| 2026-04-23 10:09 | 44.79121 | 8.64826 | 36301 ft | 452 kts | 232° |
| 2026-04-23 10:10 | 44.75109 | 8.58014 | 36300 ft | 451 kts | 232° |
| 2026-04-23 10:10 | 44.71091 | 8.51237 | 36300 ft | 451 kts | 232° |
| 2026-04-23 10:11 | 44.67073 | 8.44491 | 36300 ft | 450 kts | 232° |
| 2026-04-23 10:11 | 44.63058 | 8.37756 | 36296 ft | 449 kts | 233° |
| 2026-04-23 10:12 | 44.59056 | 8.31043 | 36297 ft | 448 kts | 233° |
| 2026-04-23 10:12 | 44.55057 | 8.24340 | 36297 ft | 447 kts | 233° |
| 2026-04-23 10:13 | 44.51060 | 8.17664 | 36293 ft | 447 kts | 233° |
| 2026-04-23 10:13 | 44.47068 | 8.11017 | 36297 ft | 446 kts | 233° |
| 2026-04-23 10:14 | 44.43073 | 8.04382 | 36295 ft | 445 kts | 233° |
| 2026-04-23 10:14 | 44.39077 | 7.97771 | 36299 ft | 445 kts | 233° |
| 2026-04-23 10:15 | 44.35085 | 7.91180 | 36295 ft | 444 kts | 233° |
| 2026-04-23 10:15 | 44.31097 | 7.84593 | 36297 ft | 444 kts | 234° |
| 2026-04-23 10:16 | 44.27080 | 7.78064 | 36294 ft | 445 kts | 229° |
| 2026-04-23 10:16 | 44.22493 | 7.72311 | 36288 ft | 447 kts | 225° |
| 2026-04-23 10:17 | 44.17832 | 7.66583 | 36286 ft | 446 kts | 226° |
| 2026-04-23 10:17 | 44.13363 | 7.60639 | 36278 ft | 440 kts | 234° |
| 2026-04-23 10:18 | 44.09362 | 7.54184 | 36277 ft | 441 kts | 234° |
| 2026-04-23 10:18 | 44.05332 | 7.47758 | 36287 ft | 441 kts | 234° |
| 2026-04-23 10:19 | 44.01307 | 7.41352 | 36280 ft | 440 kts | 234° |
| 2026-04-23 10:19 | 43.97284 | 7.34952 | 36294 ft | 439 kts | 234° |
| 2026-04-23 10:20 | 43.93271 | 7.28569 | 36291 ft | 439 kts | 234° |
| 2026-04-23 10:20 | 43.89252 | 7.22203 | 36298 ft | 438 kts | 234° |
| 2026-04-23 10:21 | 43.85237 | 7.15862 | 36305 ft | 438 kts | 234° |
| 2026-04-23 10:21 | 43.81223 | 7.09529 | 36306 ft | 437 kts | 234° |
| 2026-04-23 10:22 | 43.77210 | 7.03222 | 36313 ft | 436 kts | 234° |
| 2026-04-23 10:22 | 43.73257 | 6.96877 | 36309 ft | 431 kts | 240° |
| 2026-04-23 10:23 | 43.70520 | 6.89690 | 36307 ft | 419 kts | 253° |
| 2026-04-23 10:23 | 43.68359 | 6.82273 | 36306 ft | 419 kts | 253° |
| 2026-04-23 10:24 | 43.66168 | 6.74831 | 36302 ft | 418 kts | 253° |
| 2026-04-23 10:24 | 43.63951 | 6.67359 | 36297 ft | 417 kts | 253° |
| 2026-04-23 10:25 | 43.61765 | 6.60009 | 36290 ft | 416 kts | 253° |
| 2026-04-23 10:25 | 43.59560 | 6.52607 | 36491 ft | 418 kts | 253° |
| 2026-04-23 10:26 | 43.58452 | 6.48902 | 36670 ft | 418 kts | 253° |
| 2026-04-23 10:26 | 43.57340 | 6.45193 | 36863 ft | 418 kts | 253° |
| 2026-04-23 10:26 | 43.56228 | 6.41481 | 37078 ft | 418 kts | 253° |
| 2026-04-23 10:26 | 43.55120 | 6.37775 | 37248 ft | 419 kts | 253° |
| 2026-04-23 10:27 | 43.52901 | 6.30354 | 37271 ft | 419 kts | 253° |
| 2026-04-23 10:27 | 43.50675 | 6.22949 | 37285 ft | 418 kts | 253° |
| 2026-04-23 10:28 | 43.48441 | 6.15556 | 37280 ft | 418 kts | 253° |
| 2026-04-23 10:28 | 43.46205 | 6.08185 | 37268 ft | 417 kts | 253° |
| 2026-04-23 10:29 | 43.43968 | 6.00820 | 37269 ft | 417 kts | 252° |
| 2026-04-23 10:29 | 43.41720 | 5.93458 | 37268 ft | 417 kts | 252° |
| 2026-04-23 10:30 | 43.39479 | 5.86109 | 37260 ft | 417 kts | 253° |
| 2026-04-23 10:30 | 43.37233 | 5.78761 | 37261 ft | 417 kts | 252° |
| 2026-04-23 10:31 | 43.34981 | 5.71428 | 37256 ft | 416 kts | 252° |
| 2026-04-23 10:31 | 43.32721 | 5.64109 | 37260 ft | 416 kts | 252° |
| 2026-04-23 10:32 | 43.30457 | 5.56797 | 37257 ft | 416 kts | 252° |
| 2026-04-23 10:32 | 43.28191 | 5.49490 | 37260 ft | 416 kts | 252° |
| 2026-04-23 10:33 | 43.25924 | 5.42188 | 37263 ft | 416 kts | 252° |
| 2026-04-23 10:33 | 43.23651 | 5.34883 | 37265 ft | 416 kts | 252° |
| 2026-04-23 10:34 | 43.21372 | 5.27590 | 37263 ft | 416 kts | 252° |
| 2026-04-23 10:34 | 43.19091 | 5.20302 | 37264 ft | 416 kts | 252° |
| 2026-04-23 10:35 | 43.16801 | 5.13014 | 37266 ft | 416 kts | 252° |
| 2026-04-23 10:35 | 43.14514 | 5.05732 | 37264 ft | 416 kts | 251° |
| 2026-04-23 10:36 | 43.12216 | 4.98454 | 37268 ft | 416 kts | 251° |
| 2026-04-23 10:36 | 43.09930 | 4.91225 | 37267 ft | 417 kts | 251° |
| 2026-04-23 10:37 | 43.07615 | 4.83960 | 37270 ft | 417 kts | 251° |
| 2026-04-23 10:37 | 43.04736 | 4.77034 | 37270 ft | 426 kts | 235° |
| 2026-04-23 10:38 | 43.00414 | 4.71388 | 37267 ft | 432 kts | 226° |
| 2026-04-23 10:38 | 42.95908 | 4.65948 | 37264 ft | 432 kts | 226° |
| 2026-04-23 10:39 | 42.91403 | 4.60506 | 37266 ft | 433 kts | 226° |
| 2026-04-23 10:39 | 42.86896 | 4.55068 | 37268 ft | 433 kts | 226° |
| 2026-04-23 10:40 | 42.82378 | 4.49647 | 37272 ft | 433 kts | 226° |
| 2026-04-23 10:40 | 42.77860 | 4.44231 | 37276 ft | 433 kts | 226° |
| 2026-04-23 10:41 | 42.73346 | 4.38825 | 37274 ft | 432 kts | 226° |
| 2026-04-23 10:41 | 42.68823 | 4.33428 | 37272 ft | 432 kts | 226° |
| 2026-04-23 10:42 | 42.64300 | 4.28046 | 37272 ft | 432 kts | 225° |
| 2026-04-23 10:42 | 42.59778 | 4.22673 | 37271 ft | 432 kts | 226° |
| 2026-04-23 10:43 | 42.55264 | 4.17306 | 37269 ft | 432 kts | 225° |
| 2026-04-23 10:43 | 42.50743 | 4.11955 | 37267 ft | 431 kts | 225° |
| 2026-04-23 10:44 | 42.46215 | 4.06618 | 37272 ft | 431 kts | 225° |
| 2026-04-23 10:44 | 42.41725 | 4.01318 | 37268 ft | 431 kts | 225° |
| 2026-04-23 10:45 | 42.37208 | 3.95992 | 37268 ft | 431 kts | 225° |
| 2026-04-23 10:45 | 42.32686 | 3.90673 | 37263 ft | 431 kts | 225° |
| 2026-04-23 10:46 | 42.28168 | 3.85369 | 37266 ft | 430 kts | 225° |
| 2026-04-23 10:46 | 42.24771 | 3.80484 | 37260 ft | 423 kts | 239° |
| 2026-04-23 10:47 | 42.21402 | 3.74058 | 37258 ft | 422 kts | 238° |
| 2026-04-23 10:47 | 42.17991 | 3.67606 | 37260 ft | 423 kts | 238° |
| 2026-04-23 10:48 | 42.14556 | 3.61110 | 37257 ft | 423 kts | 238° |
| 2026-04-23 10:48 | 42.11142 | 3.54661 | 37255 ft | 423 kts | 238° |
| 2026-04-23 10:49 | 42.07723 | 3.48218 | 37253 ft | 423 kts | 238° |
| 2026-04-23 10:49 | 42.04326 | 3.41820 | 37258 ft | 423 kts | 239° |
| 2026-04-23 10:50 | 42.00900 | 3.35388 | 37256 ft | 423 kts | 238° |
| 2026-04-23 10:50 | 41.97471 | 3.28961 | 37247 ft | 423 kts | 239° |
| 2026-04-23 10:51 | 41.94037 | 3.22534 | 37246 ft | 424 kts | 239° |
| 2026-04-23 10:51 | 41.90591 | 3.16116 | 37248 ft | 424 kts | 239° |
| 2026-04-23 10:52 | 41.87139 | 3.09690 | 37243 ft | 424 kts | 239° |
| 2026-04-23 10:52 | 41.83677 | 3.03274 | 37248 ft | 425 kts | 239° |
| 2026-04-23 10:53 | 41.80209 | 2.96853 | 37242 ft | 425 kts | 239° |
| 2026-04-23 10:53 | 41.76736 | 2.90425 | 37245 ft | 426 kts | 239° |
| 2026-04-23 10:54 | 41.73252 | 2.84003 | 37240 ft | 426 kts | 239° |
| 2026-04-23 10:54 | 41.69763 | 2.77577 | 37240 ft | 427 kts | 239° |
| 2026-04-23 10:55 | 41.66226 | 2.71180 | 37233 ft | 428 kts | 238° |
| 2026-04-23 10:55 | 41.62557 | 2.64894 | 37230 ft | 429 kts | 237° |
| 2026-04-23 10:56 | 41.58851 | 2.58630 | 37221 ft | 430 kts | 237° |
| 2026-04-23 10:56 | 41.55186 | 2.52393 | 37226 ft | 430 kts | 237° |
| 2026-04-23 10:57 | 41.51508 | 2.46101 | 37222 ft | 430 kts | 237° |
| 2026-04-23 10:57 | 41.47828 | 2.39810 | 37228 ft | 430 kts | 237° |
| 2026-04-23 10:58 | 41.44193 | 2.33614 | 37230 ft | 430 kts | 237° |
| 2026-04-23 10:58 | 41.40503 | 2.27357 | 37225 ft | 430 kts | 237° |
| 2026-04-23 10:59 | 41.36805 | 2.21087 | 37230 ft | 430 kts | 237° |
| 2026-04-23 10:59 | 41.33113 | 2.14835 | 37231 ft | 430 kts | 237° |
| 2026-04-23 11:00 | 41.29382 | 2.08628 | 37233 ft | 430 kts | 235° |
| 2026-04-23 11:00 | 41.25402 | 2.02657 | 37232 ft | 432 kts | 232° |
| 2026-04-23 11:01 | 41.21319 | 1.96797 | 37231 ft | 432 kts | 232° |
| 2026-04-23 11:01 | 41.17272 | 1.90918 | 37232 ft | 431 kts | 233° |
| 2026-04-23 11:02 | 41.13260 | 1.85006 | 37227 ft | 431 kts | 233° |
| 2026-04-23 11:02 | 41.09267 | 1.79096 | 37226 ft | 430 kts | 233° |
| 2026-04-23 11:03 | 41.05263 | 1.73210 | 37222 ft | 430 kts | 233° |
| 2026-04-23 11:03 | 41.01253 | 1.67336 | 37226 ft | 430 kts | 233° |
| 2026-04-23 11:04 | 40.97250 | 1.61471 | 37222 ft | 429 kts | 233° |
| 2026-04-23 11:04 | 40.93250 | 1.55617 | 37221 ft | 429 kts | 232° |
| 2026-04-23 11:05 | 40.89246 | 1.49783 | 37222 ft | 428 kts | 232° |
| 2026-04-23 11:05 | 40.85243 | 1.43975 | 37220 ft | 427 kts | 232° |
| 2026-04-23 11:06 | 40.79238 | 1.35277 | 37212 ft | 427 kts | 232° |
| 2026-04-23 11:07 | 40.75239 | 1.29497 | 37216 ft | 426 kts | 232° |
| 2026-04-23 11:07 | 40.71239 | 1.23731 | 37208 ft | 426 kts | 232° |
| 2026-04-23 11:08 | 40.67245 | 1.17962 | 37211 ft | 426 kts | 232° |
| 2026-04-23 11:08 | 40.63260 | 1.12208 | 37207 ft | 425 kts | 232° |
| 2026-04-23 11:09 | 40.59262 | 1.06467 | 37201 ft | 425 kts | 231° |
| 2026-04-23 11:09 | 40.55263 | 1.00737 | 37205 ft | 425 kts | 231° |
| 2026-04-23 11:10 | 40.51361 | 0.95148 | 37150 ft | 406 kts | 231° |
| 2026-04-23 11:10 | 40.49471 | 0.92451 | 36864 ft | 398 kts | 231° |
| 2026-04-23 11:10 | 40.47614 | 0.89800 | 36515 ft | 392 kts | 231° |
| 2026-04-23 11:10 | 40.45774 | 0.87173 | 36060 ft | 389 kts | 231° |
| 2026-04-23 11:11 | 40.43949 | 0.84569 | 35622 ft | 386 kts | 231° |
| 2026-04-23 11:11 | 40.42132 | 0.81984 | 35191 ft | 384 kts | 231° |
| 2026-04-23 11:11 | 40.40325 | 0.79419 | 34754 ft | 381 kts | 231° |
| 2026-04-23 11:11 | 40.38530 | 0.76874 | 34327 ft | 379 kts | 231° |
| 2026-04-23 11:12 | 40.36746 | 0.74343 | 33862 ft | 377 kts | 230° |
| 2026-04-23 11:12 | 40.34979 | 0.71836 | 33450 ft | 373 kts | 231° |
| 2026-04-23 11:12 | 40.33229 | 0.69354 | 33043 ft | 369 kts | 231° |
| 2026-04-23 11:12 | 40.31495 | 0.66897 | 32648 ft | 366 kts | 230° |
| 2026-04-23 11:13 | 40.29773 | 0.64460 | 32264 ft | 362 kts | 230° |
| 2026-04-23 11:13 | 40.28065 | 0.62051 | 31865 ft | 359 kts | 230° |
| 2026-04-23 11:13 | 40.26371 | 0.59662 | 31465 ft | 357 kts | 230° |
| 2026-04-23 11:13 | 40.24689 | 0.57289 | 31064 ft | 354 kts | 230° |
| 2026-04-23 11:14 | 40.23017 | 0.54932 | 30675 ft | 352 kts | 230° |
| 2026-04-23 11:14 | 40.21357 | 0.52592 | 30286 ft | 349 kts | 230° |
| 2026-04-23 11:14 | 40.19711 | 0.50271 | 29844 ft | 347 kts | 230° |
| 2026-04-23 11:14 | 40.18075 | 0.47967 | 29381 ft | 346 kts | 230° |
| 2026-04-23 11:15 | 40.16443 | 0.45671 | 28955 ft | 343 kts | 230° |
| 2026-04-23 11:15 | 40.14836 | 0.43418 | 28614 ft | 338 kts | 230° |
| 2026-04-23 11:15 | 40.13240 | 0.41179 | 28195 ft | 335 kts | 230° |
| 2026-04-23 11:15 | 40.11659 | 0.38963 | 27788 ft | 332 kts | 230° |
| 2026-04-23 11:16 | 40.10088 | 0.36761 | 27362 ft | 330 kts | 230° |
| 2026-04-23 11:16 | 40.08531 | 0.34577 | 26950 ft | 328 kts | 230° |
| 2026-04-23 11:16 | 40.06981 | 0.32405 | 26532 ft | 326 kts | 230° |
| 2026-04-23 11:16 | 40.05436 | 0.30245 | 26117 ft | 324 kts | 230° |
| 2026-04-23 11:17 | 40.03897 | 0.28099 | 25697 ft | 323 kts | 230° |
| 2026-04-23 11:17 | 40.02365 | 0.25962 | 25276 ft | 322 kts | 230° |
| 2026-04-23 11:17 | 40.00837 | 0.23829 | 24861 ft | 321 kts | 230° |
| 2026-04-23 11:17 | 39.99315 | 0.21703 | 24444 ft | 320 kts | 230° |
| 2026-04-23 11:18 | 39.97797 | 0.19580 | 24024 ft | 320 kts | 230° |
| 2026-04-23 11:18 | 39.96279 | 0.17460 | 23575 ft | 320 kts | 230° |
| 2026-04-23 11:18 | 39.94765 | 0.15349 | 23139 ft | 318 kts | 229° |
| 2026-04-23 11:18 | 39.93260 | 0.13255 | 22729 ft | 315 kts | 229° |
| 2026-04-23 11:19 | 39.91762 | 0.11177 | 22327 ft | 313 kts | 229° |
| 2026-04-23 11:19 | 39.90287 | 0.09134 | 21925 ft | 304 kts | 229° |
| 2026-04-23 11:19 | 39.88863 | 0.07160 | 21534 ft | 294 kts | 229° |
| 2026-04-23 11:19 | 39.87474 | 0.05235 | 21157 ft | 289 kts | 229° |
| 2026-04-23 11:20 | 39.86109 | 0.03339 | 20780 ft | 287 kts | 229° |
| 2026-04-23 11:20 | 39.84747 | 0.01442 | 20408 ft | 287 kts | 230° |
| 2026-04-23 11:20 | 39.83620 | -0.00674 | 19859 ft | 289 kts | 249° |
| 2026-04-23 11:20 | 39.82903 | -0.03182 | 19059 ft | 304 kts | 251° |
| 2026-04-23 11:21 | 39.82180 | -0.05844 | 18179 ft | 320 kts | 251° |
| 2026-04-23 11:21 | 39.81422 | -0.08647 | 17193 ft | 336 kts | 251° |
| 2026-04-23 11:21 | 39.80650 | -0.11495 | 16579 ft | 339 kts | 251° |
| 2026-04-23 11:21 | 39.79852 | -0.14432 | 15807 ft | 345 kts | 251° |
| 2026-04-23 11:22 | 39.79043 | -0.17412 | 15067 ft | 352 kts | 251° |
| 2026-04-23 11:22 | 39.78238 | -0.20364 | 14570 ft | 350 kts | 251° |
| 2026-04-23 11:22 | 39.77415 | -0.23365 | 14092 ft | 346 kts | 251° |
| 2026-04-23 11:22 | 39.76604 | -0.26300 | 13588 ft | 343 kts | 251° |
| 2026-04-23 11:23 | 39.76342 | -0.27244 | 13408 ft | 342 kts | 251° |
| 2026-04-23 11:23 | 39.75647 | -0.29484 | 12871 ft | 342 kts | 248° |
| 2026-04-23 11:23 | 39.74767 | -0.32407 | 11862 ft | 353 kts | 250° |
| 2026-04-23 11:23 | 39.73945 | -0.35426 | 11117 ft | 355 kts | 250° |
| 2026-04-23 11:24 | 39.73153 | -0.38454 | 10648 ft | 351 kts | 251° |
| 2026-04-23 11:24 | 39.72400 | -0.41343 | 10525 ft | 334 kts | 250° |
| 2026-04-23 11:24 | 39.71663 | -0.44128 | 10405 ft | 319 kts | 250° |
| 2026-04-23 11:24 | 39.70943 | -0.46795 | 10211 ft | 308 kts | 250° |
| 2026-04-23 11:25 | 39.70238 | -0.49362 | 9955 ft | 294 kts | 249° |
| 2026-04-23 11:25 | 39.69561 | -0.51797 | 9559 ft | 279 kts | 249° |
| 2026-04-23 11:25 | 39.68913 | -0.54120 | 9078 ft | 269 kts | 249° |
| 2026-04-23 11:25 | 39.68285 | -0.56368 | 8581 ft | 262 kts | 249° |
| 2026-04-23 11:26 | 39.67660 | -0.58603 | 8091 ft | 265 kts | 249° |
| 2026-04-23 11:26 | 39.67028 | -0.60864 | 7604 ft | 267 kts | 248° |
| 2026-04-23 11:26 | 39.66406 | -0.63097 | 7119 ft | 259 kts | 248° |
| 2026-04-23 11:26 | 39.65811 | -0.65238 | 6879 ft | 242 kts | 248° |
| 2026-04-23 11:27 | 39.65265 | -0.67213 | 6755 ft | 227 kts | 248° |
| 2026-04-23 11:27 | 39.64733 | -0.69123 | 6490 ft | 223 kts | 248° |
| 2026-04-23 11:27 | 39.64206 | -0.71004 | 6189 ft | 221 kts | 248° |
| 2026-04-23 11:27 | 39.63676 | -0.72874 | 5884 ft | 220 kts | 245° |
| 2026-04-23 11:28 | 39.62810 | -0.74459 | 5579 ft | 216 kts | 217° |
| 2026-04-23 11:28 | 39.61459 | -0.75234 | 5272 ft | 214 kts | 188° |
| 2026-04-23 11:28 | 39.60000 | -0.75003 | 4850 ft | 215 kts | 157° |
| 2026-04-23 11:28 | 39.58814 | -0.73856 | 4415 ft | 214 kts | 131° |
| 2026-04-23 11:29 | 39.58040 | -0.72227 | 4068 ft | 211 kts | 117° |
| 2026-04-23 11:29 | 39.57407 | -0.70544 | 3775 ft | 204 kts | 116° |
| 2026-04-23 11:29 | 39.56796 | -0.68911 | 3518 ft | 200 kts | 116° |
| 2026-04-23 11:29 | 39.56185 | -0.67292 | 3289 ft | 198 kts | 115° |
| 2026-04-23 11:30 | 39.55582 | -0.65695 | 2994 ft | 196 kts | 115° |
| 2026-04-23 11:30 | 39.54996 | -0.64147 | 2728 ft | 185 kts | 115° |
| 2026-04-23 11:30 | 39.54450 | -0.62706 | 2495 ft | 172 kts | 114° |
| 2026-04-23 11:30 | 39.53946 | -0.61376 | 2295 ft | 155 kts | 114° |
| 2026-04-23 11:31 | 39.53491 | -0.60176 | 2076 ft | 143 kts | 114° |
| 2026-04-23 11:31 | 39.53066 | -0.59046 | 1830 ft | 137 kts | 114° |
| 2026-04-23 11:31 | 39.52658 | -0.57956 | 1612 ft | 136 kts | 112° |
| 2026-04-23 11:31 | 39.52239 | -0.56854 | 1487 ft | 136 kts | 113° |
| 2026-04-23 11:32 | 39.51960 | -0.56115 | 1356 ft | 134 kts | 113° |
| 2026-04-23 11:32 | 39.51552 | -0.55042 | 1101 ft | 132 kts | 112° |
| 2026-04-23 11:32 | 39.51147 | -0.53984 | 914 ft | 131 kts | 112° |
| 2026-04-23 11:32 | 39.50743 | -0.52914 | 740 ft | 133 kts | 113° |
| 2026-04-23 11:33 | 39.50334 | -0.51858 | 588 ft | 130 kts | 111° |
| 2026-04-23 11:33 | 39.49927 | -0.50808 | 404 ft | 131 kts | 111° |
| 2026-04-23 11:33 | 39.49541 | -0.49766 | 221 ft | 129 kts | 112° |
| 2026-04-23 11:33 | 39.49196 | -0.48859 | 214 ft | 88 kts | 116° |
| 2026-04-23 11:34 | 39.48995 | -0.48329 | 214 ft | 51 kts | 116° |
| 2026-04-23 11:34 | 39.48854 | -0.47957 | 215 ft | 42 kts | 116° |
| 2026-04-23 11:34 | 39.48743 | -0.47666 | 219 ft | 29 kts | 116° |
| 2026-04-23 11:34 | 39.48665 | -0.47457 | 215 ft | 22 kts | 115° |
| 2026-04-23 11:35 | 39.48658 | -0.47283 | 211 ft | 19 kts | 75° |
| 2026-04-23 11:35 | 39.48712 | -0.47195 | 210 ft | 10 kts | 30° |
| 2026-04-23 11:35 | 39.48784 | -0.47186 | 213 ft | 11 kts | 346° |
| 2026-04-23 11:35 | 39.48838 | -0.47215 | 212 ft | 7 kts | 335° |
| 2026-04-23 11:36 | 39.48881 | -0.47239 | 213 ft | 6 kts | 337° |
| 2026-04-23 11:36 | 39.48916 | -0.47265 | 215 ft | 5 kts | 312° |
| 2026-04-23 11:36 | 39.48935 | -0.47310 | 212 ft | 7 kts | 296° |
| 2026-04-23 11:36 | 39.48954 | -0.47360 | 212 ft | 6 kts | 296° |
| 2026-04-23 11:37 | 39.48971 | -0.47404 | 211 ft | 5 kts | 296° |
| 2026-04-23 11:37 | 39.48985 | -0.47441 | 211 ft | 4 kts | 296° |
| 2026-04-23 11:37 | 39.49004 | -0.47490 | 209 ft | 6 kts | 296° |
| 2026-04-23 11:37 | 39.49021 | -0.47537 | 215 ft | 5 kts | 296° |
| 2026-04-23 11:38 | 39.49042 | -0.47557 | 218 ft | 3 kts | 9° |
| 2026-04-23 11:38 | 39.49066 | -0.47528 | 213 ft | 6 kts | 45° |
| 2026-04-23 11:38 | 39.49090 | -0.47497 | 209 ft | 3 kts | 46° |
| 2026-04-23 11:38 | 39.49100 | -0.47484 | 209 ft | 0 kts | 45° |